sensor_id;sensor_type;location;lat;lon;timestamp;pressure;altitude;pressure_sealevel;temperature;humidity
49645;BME280;36494;50.730;-1.932;2023-03-14T00:00:33;98433.00;;;9.56;100.00
49645;BME280;36494;50.730;-1.932;2023-03-14T00:02:58;98428.85;;;9.30;100.00
49645;BME280;36494;50.730;-1.932;2023-03-14T00:05:23;98429.72;;;9.23;100.00
49645;BME280;36494;50.730;-1.932;2023-03-14T00:07:49;98420.90;;;9.09;100.00
49645;BME280;36494;50.730;-1.932;2023-03-14T00:10:14;98422.97;;;8.92;100.00
49645;BME280;36494;50.730;-1.932;2023-03-14T00:12:40;98427.73;;;8.67;100.00
49645;BME280;36494;50.730;-1.932;2023-03-14T00:15:06;98451.05;;;8.60;100.00
49645;BME280;36494;50.730;-1.932;2023-03-14T00:17:31;98452.06;;;8.53;100.00
49645;BME280;36494;50.730;-1.932;2023-03-14T00:19:55;98460.58;;;8.50;100.00
49645;BME280;36494;50.730;-1.932;2023-03-14T00:22:21;98465.57;;;8.44;100.00
49645;BME280;36494;50.730;-1.932;2023-03-14T00:24:46;98471.88;;;8.40;100.00
49645;BME280;36494;50.730;-1.932;2023-03-14T00:27:11;98476.22;;;8.43;100.00
49645;BME280;36494;50.730;-1.932;2023-03-14T00:29:37;98495.35;;;8.44;100.00
49645;BME280;36494;50.730;-1.932;2023-03-14T00:32:03;98497.25;;;8.46;100.00
49645;BME280;36494;50.730;-1.932;2023-03-14T00:34:28;98503.89;;;8.27;100.00
49645;BME280;36494;50.730;-1.932;2023-03-14T00:36:53;98514.67;;;8.10;100.00
49645;BME280;36494;50.730;-1.932;2023-03-14T00:39:18;98524.47;;;7.93;100.00
49645;BME280;36494;50.730;-1.932;2023-03-14T00:41:44;98541.17;;;7.86;100.00
49645;BME280;36494;50.730;-1.932;2023-03-14T00:44:09;98551.81;;;7.85;100.00
49645;BME280;36494;50.730;-1.932;2023-03-14T00:46:34;98569.64;;;7.70;100.00
49645;BME280;36494;50.730;-1.932;2023-03-14T00:49:00;98587.38;;;7.71;100.00
49645;BME280;36494;50.730;-1.932;2023-03-14T00:51:25;98595.67;;;7.63;100.00
49645;BME280;36494;50.730;-1.932;2023-03-14T00:53:50;98609.51;;;7.52;100.00
49645;BME280;36494;50.730;-1.932;2023-03-14T00:56:16;98609.44;;;7.56;100.00
49645;BME280;36494;50.730;-1.932;2023-03-14T00:58:41;98632.44;;;7.53;100.00
49645;BME280;36494;50.730;-1.932;2023-03-14T01:01:08;98636.20;;;7.51;100.00
49645;BME280;36494;50.730;-1.932;2023-03-14T01:03:32;98659.26;;;7.51;100.00
49645;BME280;36494;50.730;-1.932;2023-03-14T01:06:08;98665.27;;;7.53;100.00
49645;BME280;36494;50.730;-1.932;2023-03-14T01:08:22;98685.16;;;7.26;100.00
49645;BME280;36494;50.730;-1.932;2023-03-14T01:10:48;98687.78;;;7.18;100.00
49645;BME280;36494;50.730;-1.932;2023-03-14T01:13:13;98695.94;;;7.06;100.00
49645;BME280;36494;50.730;-1.932;2023-03-14T01:15:39;98709.15;;;7.04;100.00
49645;BME280;36494;50.730;-1.932;2023-03-14T01:18:04;98723.34;;;7.04;100.00
49645;BME280;36494;50.730;-1.932;2023-03-14T01:20:30;98727.67;;;6.88;100.00
49645;BME280;36494;50.730;-1.932;2023-03-14T01:22:55;98743.83;;;6.96;100.00
49645;BME280;36494;50.730;-1.932;2023-03-14T01:25:21;98757.27;;;6.82;100.00
49645;BME280;36494;50.730;-1.932;2023-03-14T01:27:46;98760.29;;;6.85;100.00
49645;BME280;36494;50.730;-1.932;2023-03-14T01:30:12;98773.71;;;6.74;100.00
49645;BME280;36494;50.730;-1.932;2023-03-14T01:32:38;98778.54;;;6.66;100.00
49645;BME280;36494;50.730;-1.932;2023-03-14T01:35:03;98790.63;;;6.49;100.00
49645;BME280;36494;50.730;-1.932;2023-03-14T01:37:28;98803.44;;;6.56;100.00
49645;BME280;36494;50.730;-1.932;2023-03-14T01:39:53;98811.91;;;6.51;100.00
49645;BME280;36494;50.730;-1.932;2023-03-14T01:42:19;98828.54;;;6.40;100.00
49645;BME280;36494;50.730;-1.932;2023-03-14T01:44:49;98828.85;;;6.33;100.00
49645;BME280;36494;50.730;-1.932;2023-03-14T01:47:09;98845.52;;;6.36;100.00
49645;BME280;36494;50.730;-1.932;2023-03-14T01:49:35;98849.20;;;6.32;100.00
49645;BME280;36494;50.730;-1.932;2023-03-14T01:52:02;98864.38;;;6.26;100.00
49645;BME280;36494;50.730;-1.932;2023-03-14T01:54:28;98867.37;;;6.17;100.00
49645;BME280;36494;50.730;-1.932;2023-03-14T01:56:54;98880.38;;;6.12;100.00
49645;BME280;36494;50.730;-1.932;2023-03-14T01:59:16;98886.78;;;6.08;100.00
49645;BME280;36494;50.730;-1.932;2023-03-14T02:01:44;98901.30;;;6.13;100.00
49645;BME280;36494;50.730;-1.932;2023-03-14T02:04:07;98914.29;;;6.07;100.00
49645;BME280;36494;50.730;-1.932;2023-03-14T02:06:40;98930.07;;;6.13;100.00
49645;BME280;36494;50.730;-1.932;2023-03-14T02:08:59;98924.59;;;6.08;100.00
49645;BME280;36494;50.730;-1.932;2023-03-14T02:11:27;98938.35;;;5.99;100.00
49645;BME280;36494;50.730;-1.932;2023-03-14T02:13:49;98947.64;;;5.96;100.00
49645;BME280;36494;50.730;-1.932;2023-03-14T02:16:14;98951.19;;;5.85;100.00
49645;BME280;36494;50.730;-1.932;2023-03-14T02:18:40;98959.46;;;5.91;100.00
49645;BME280;36494;50.730;-1.932;2023-03-14T02:21:12;98962.36;;;5.83;100.00
49645;BME280;36494;50.730;-1.932;2023-03-14T02:23:36;98971.87;;;5.87;100.00
49645;BME280;36494;50.730;-1.932;2023-03-14T02:26:00;98980.07;;;5.82;100.00
49645;BME280;36494;50.730;-1.932;2023-03-14T02:28:22;98989.73;;;5.75;100.00
49645;BME280;36494;50.730;-1.932;2023-03-14T02:30:48;98990.18;;;5.70;100.00
49645;BME280;36494;50.730;-1.932;2023-03-14T02:33:15;98996.78;;;5.74;100.00
49645;BME280;36494;50.730;-1.932;2023-03-14T02:35:43;99005.21;;;5.77;100.00
49645;BME280;36494;50.730;-1.932;2023-03-14T02:38:10;99015.65;;;5.75;100.00
49645;BME280;36494;50.730;-1.932;2023-03-14T02:40:29;99021.63;;;5.67;100.00
49645;BME280;36494;50.730;-1.932;2023-03-14T02:42:55;99030.61;;;5.71;100.00
49645;BME280;36494;50.730;-1.932;2023-03-14T02:45:33;99031.22;;;5.72;100.00
49645;BME280;36494;50.730;-1.932;2023-03-14T02:47:49;99035.83;;;5.64;100.00
49645;BME280;36494;50.730;-1.932;2023-03-14T02:50:14;99046.61;;;5.63;100.00
49645;BME280;36494;50.730;-1.932;2023-03-14T02:52:36;99048.15;;;5.51;100.00
49645;BME280;36494;50.730;-1.932;2023-03-14T02:55:02;99062.63;;;5.44;100.00
49645;BME280;36494;50.730;-1.932;2023-03-14T02:57:27;99068.15;;;5.43;100.00
49645;BME280;36494;50.730;-1.932;2023-03-14T02:59:52;99069.61;;;5.38;100.00
49645;BME280;36494;50.730;-1.932;2023-03-14T03:02:18;99068.98;;;5.41;100.00
49645;BME280;36494;50.730;-1.932;2023-03-14T03:04:43;99074.76;;;5.32;100.00
49645;BME280;36494;50.730;-1.932;2023-03-14T03:07:08;99080.64;;;5.31;100.00
49645;BME280;36494;50.730;-1.932;2023-03-14T03:09:34;99086.23;;;5.32;100.00
49645;BME280;36494;50.730;-1.932;2023-03-14T03:11:59;99090.52;;;5.32;100.00
49645;BME280;36494;50.730;-1.932;2023-03-14T03:14:25;99096.78;;;5.28;100.00
49645;BME280;36494;50.730;-1.932;2023-03-14T03:16:50;99099.52;;;5.27;100.00
49645;BME280;36494;50.730;-1.932;2023-03-14T03:19:15;99100.37;;;5.29;100.00
49645;BME280;36494;50.730;-1.932;2023-03-14T03:21:41;99114.01;;;5.25;100.00
49645;BME280;36494;50.730;-1.932;2023-03-14T03:24:06;99117.38;;;5.22;100.00
49645;BME280;36494;50.730;-1.932;2023-03-14T03:26:32;99135.25;;;5.23;100.00
49645;BME280;36494;50.730;-1.932;2023-03-14T03:28:57;99139.14;;;5.25;100.00
49645;BME280;36494;50.730;-1.932;2023-03-14T03:31:22;99150.16;;;5.21;100.00
49645;BME280;36494;50.730;-1.932;2023-03-14T03:33:48;99159.84;;;5.26;100.00
49645;BME280;36494;50.730;-1.932;2023-03-14T03:36:13;99168.75;;;5.22;100.00
49645;BME280;36494;50.730;-1.932;2023-03-14T03:38:38;99173.84;;;5.23;100.00
49645;BME280;36494;50.730;-1.932;2023-03-14T03:41:05;99175.37;;;5.25;100.00
49645;BME280;36494;50.730;-1.932;2023-03-14T03:43:29;99180.82;;;5.24;100.00
49645;BME280;36494;50.730;-1.932;2023-03-14T03:45:54;99181.80;;;5.25;100.00
49645;BME280;36494;50.730;-1.932;2023-03-14T03:48:19;99187.45;;;5.27;100.00
49645;BME280;36494;50.730;-1.932;2023-03-14T03:50:45;99190.64;;;5.29;100.00
49645;BME280;36494;50.730;-1.932;2023-03-14T03:53:10;99198.67;;;5.27;100.00
49645;BME280;36494;50.730;-1.932;2023-03-14T03:55:36;99203.83;;;5.32;100.00
49645;BME280;36494;50.730;-1.932;2023-03-14T03:58:02;99206.49;;;5.30;100.00
49645;BME280;36494;50.730;-1.932;2023-03-14T04:00:27;99212.02;;;5.35;100.00
49645;BME280;36494;50.730;-1.932;2023-03-14T04:02:52;99222.88;;;5.35;100.00
49645;BME280;36494;50.730;-1.932;2023-03-14T04:05:18;99219.87;;;5.36;100.00
49645;BME280;36494;50.730;-1.932;2023-03-14T04:07:43;99230.00;;;5.41;100.00
49645;BME280;36494;50.730;-1.932;2023-03-14T04:10:09;99230.26;;;5.41;100.00
49645;BME280;36494;50.730;-1.932;2023-03-14T04:12:33;99240.15;;;5.42;100.00
49645;BME280;36494;50.730;-1.932;2023-03-14T04:14:59;99245.04;;;5.47;100.00
49645;BME280;36494;50.730;-1.932;2023-03-14T04:17:24;99255.09;;;5.48;100.00
49645;BME280;36494;50.730;-1.932;2023-03-14T04:19:50;99268.25;;;5.50;100.00
49645;BME280;36494;50.730;-1.932;2023-03-14T04:22:15;99270.07;;;5.54;100.00
49645;BME280;36494;50.730;-1.932;2023-03-14T04:24:40;99271.79;;;5.55;100.00
49645;BME280;36494;50.730;-1.932;2023-03-14T04:27:05;99284.90;;;5.58;100.00
49645;BME280;36494;50.730;-1.932;2023-03-14T04:29:30;99286.21;;;5.59;100.00
49645;BME280;36494;50.730;-1.932;2023-03-14T04:31:56;99295.86;;;5.63;100.00
49645;BME280;36494;50.730;-1.932;2023-03-14T04:34:21;99300.63;;;5.60;100.00
49645;BME280;36494;50.730;-1.932;2023-03-14T04:36:47;99302.45;;;5.66;100.00
49645;BME280;36494;50.730;-1.932;2023-03-14T04:39:12;99306.67;;;5.67;100.00
49645;BME280;36494;50.730;-1.932;2023-03-14T04:41:38;99311.55;;;5.70;100.00
49645;BME280;36494;50.730;-1.932;2023-03-14T04:44:03;99318.57;;;5.70;100.00
49645;BME280;36494;50.730;-1.932;2023-03-14T04:46:28;99325.78;;;5.67;100.00
49645;BME280;36494;50.730;-1.932;2023-03-14T04:48:54;99333.31;;;5.65;100.00
49645;BME280;36494;50.730;-1.932;2023-03-14T04:51:19;99339.85;;;5.69;100.00
49645;BME280;36494;50.730;-1.932;2023-03-14T04:53:44;99343.24;;;5.70;100.00
49645;BME280;36494;50.730;-1.932;2023-03-14T04:56:09;99354.36;;;5.51;100.00
49645;BME280;36494;50.730;-1.932;2023-03-14T04:58:35;99370.54;;;5.42;100.00
49645;BME280;36494;50.730;-1.932;2023-03-14T05:01:02;99378.56;;;5.20;100.00
49645;BME280;36494;50.730;-1.932;2023-03-14T05:03:26;99396.21;;;4.76;100.00
49645;BME280;36494;50.730;-1.932;2023-03-14T05:05:51;99403.76;;;4.49;100.00
49645;BME280;36494;50.730;-1.932;2023-03-14T05:08:17;99405.47;;;4.52;100.00
49645;BME280;36494;50.730;-1.932;2023-03-14T05:10:42;99413.54;;;4.58;100.00
49645;BME280;36494;50.730;-1.932;2023-03-14T05:13:07;99416.36;;;4.33;100.00
49645;BME280;36494;50.730;-1.932;2023-03-14T05:15:33;99418.75;;;4.34;100.00
49645;BME280;36494;50.730;-1.932;2023-03-14T05:17:58;99413.20;;;4.54;100.00
49645;BME280;36494;50.730;-1.932;2023-03-14T05:20:24;99415.11;;;4.44;100.00
49645;BME280;36494;50.730;-1.932;2023-03-14T05:22:49;99423.48;;;4.47;100.00
49645;BME280;36494;50.730;-1.932;2023-03-14T05:25:15;99417.02;;;4.54;100.00
49645;BME280;36494;50.730;-1.932;2023-03-14T05:27:40;99427.22;;;4.54;100.00
49645;BME280;36494;50.730;-1.932;2023-03-14T05:30:07;99436.27;;;4.50;100.00
49645;BME280;36494;50.730;-1.932;2023-03-14T05:32:31;99445.91;;;4.34;100.00
49645;BME280;36494;50.730;-1.932;2023-03-14T05:34:56;99445.62;;;4.44;100.00
49645;BME280;36494;50.730;-1.932;2023-03-14T05:37:21;99450.27;;;4.44;100.00
49645;BME280;36494;50.730;-1.932;2023-03-14T05:39:47;99438.47;;;4.37;100.00
49645;BME280;36494;50.730;-1.932;2023-03-14T05:42:12;99442.88;;;4.40;100.00
49645;BME280;36494;50.730;-1.932;2023-03-14T05:44:38;99443.79;;;4.43;100.00
49645;BME280;36494;50.730;-1.932;2023-03-14T05:47:03;99447.51;;;4.46;100.00
49645;BME280;36494;50.730;-1.932;2023-03-14T05:49:28;99442.74;;;4.43;100.00
49645;BME280;36494;50.730;-1.932;2023-03-14T05:51:54;99454.71;;;4.39;100.00
49645;BME280;36494;50.730;-1.932;2023-03-14T05:54:19;99458.63;;;4.41;100.00
49645;BME280;36494;50.730;-1.932;2023-03-14T05:56:45;99463.47;;;4.43;100.00
49645;BME280;36494;50.730;-1.932;2023-03-14T05:59:10;99466.49;;;4.41;100.00
49645;BME280;36494;50.730;-1.932;2023-03-14T06:01:35;99474.74;;;4.36;100.00
49645;BME280;36494;50.730;-1.932;2023-03-14T06:04:01;99482.43;;;4.34;100.00
49645;BME280;36494;50.730;-1.932;2023-03-14T06:06:26;99486.56;;;4.30;100.00
49645;BME280;36494;50.730;-1.932;2023-03-14T06:08:52;99490.37;;;4.29;100.00
49645;BME280;36494;50.730;-1.932;2023-03-14T06:11:17;99496.86;;;4.23;100.00
49645;BME280;36494;50.730;-1.932;2023-03-14T06:13:43;99503.58;;;4.22;100.00
49645;BME280;36494;50.730;-1.932;2023-03-14T06:16:09;99508.18;;;4.17;100.00
49645;BME280;36494;50.730;-1.932;2023-03-14T06:18:34;99501.73;;;4.17;100.00
49645;BME280;36494;50.730;-1.932;2023-03-14T06:20:59;99506.92;;;4.14;100.00
49645;BME280;36494;50.730;-1.932;2023-03-14T06:23:24;99510.61;;;4.12;100.00
49645;BME280;36494;50.730;-1.932;2023-03-14T06:25:50;99510.94;;;4.04;100.00
49645;BME280;36494;50.730;-1.932;2023-03-14T06:28:15;99511.68;;;4.06;100.00
49645;BME280;36494;50.730;-1.932;2023-03-14T06:30:41;99512.64;;;4.02;100.00
49645;BME280;36494;50.730;-1.932;2023-03-14T06:33:06;99520.07;;;3.96;100.00
49645;BME280;36494;50.730;-1.932;2023-03-14T06:35:32;99531.39;;;4.00;100.00
49645;BME280;36494;50.730;-1.932;2023-03-14T06:37:57;99533.57;;;4.01;100.00
49645;BME280;36494;50.730;-1.932;2023-03-14T06:40:23;99541.74;;;4.02;100.00
49645;BME280;36494;50.730;-1.932;2023-03-14T06:42:48;99545.20;;;4.02;100.00
49645;BME280;36494;50.730;-1.932;2023-03-14T06:45:14;99552.38;;;4.06;100.00
49645;BME280;36494;50.730;-1.932;2023-03-14T06:47:39;99558.80;;;4.14;100.00
49645;BME280;36494;50.730;-1.932;2023-03-14T06:50:06;99563.48;;;4.16;100.00
49645;BME280;36494;50.730;-1.932;2023-03-14T06:52:30;99559.55;;;4.14;100.00
49645;BME280;36494;50.730;-1.932;2023-03-14T06:54:55;99561.76;;;4.19;100.00
49645;BME280;36494;50.730;-1.932;2023-03-14T06:57:20;99566.60;;;4.20;100.00
49645;BME280;36494;50.730;-1.932;2023-03-14T06:59:45;99576.15;;;4.21;100.00
49645;BME280;36494;50.730;-1.932;2023-03-14T07:02:12;99586.73;;;4.13;100.00
49645;BME280;36494;50.730;-1.932;2023-03-14T07:04:36;99601.09;;;4.19;100.00
49645;BME280;36494;50.730;-1.932;2023-03-14T07:07:02;99617.33;;;4.09;100.00
49645;BME280;36494;50.730;-1.932;2023-03-14T07:09:27;99624.29;;;4.06;100.00
49645;BME280;36494;50.730;-1.932;2023-03-14T07:11:53;99634.02;;;3.94;100.00
49645;BME280;36494;50.730;-1.932;2023-03-14T07:14:18;99640.07;;;4.00;100.00
49645;BME280;36494;50.730;-1.932;2023-03-14T07:16:44;99645.15;;;3.90;100.00
49645;BME280;36494;50.730;-1.932;2023-03-14T07:19:09;99649.33;;;4.01;100.00
49645;BME280;36494;50.730;-1.932;2023-03-14T07:21:34;99654.26;;;3.93;100.00
49645;BME280;36494;50.730;-1.932;2023-03-14T07:24:00;99661.12;;;3.96;100.00
49645;BME280;36494;50.730;-1.932;2023-03-14T07:26:25;99666.98;;;3.93;100.00
49645;BME280;36494;50.730;-1.932;2023-03-14T07:28:51;99675.63;;;3.91;100.00
49645;BME280;36494;50.730;-1.932;2023-03-14T07:31:16;99680.89;;;3.92;100.00
49645;BME280;36494;50.730;-1.932;2023-03-14T07:33:41;99686.16;;;3.94;100.00
49645;BME280;36494;50.730;-1.932;2023-03-14T07:36:08;99689.79;;;3.91;100.00
49645;BME280;36494;50.730;-1.932;2023-03-14T07:38:32;99701.97;;;3.92;100.00
49645;BME280;36494;50.730;-1.932;2023-03-14T07:40:59;99704.66;;;3.95;100.00
49645;BME280;36494;50.730;-1.932;2023-03-14T07:43:23;99697.40;;;3.97;100.00
49645;BME280;36494;50.730;-1.932;2023-03-14T07:45:49;99705.94;;;3.96;100.00
49645;BME280;36494;50.730;-1.932;2023-03-14T07:48:14;99717.68;;;3.99;100.00
49645;BME280;36494;50.730;-1.932;2023-03-14T07:50:40;99724.76;;;3.97;100.00
49645;BME280;36494;50.730;-1.932;2023-03-14T07:53:05;99738.72;;;4.04;100.00
49645;BME280;36494;50.730;-1.932;2023-03-14T07:55:31;99740.40;;;4.09;100.00
49645;BME280;36494;50.730;-1.932;2023-03-14T07:57:56;99749.37;;;4.15;100.00
49645;BME280;36494;50.730;-1.932;2023-03-14T08:00:22;99752.03;;;4.18;100.00
49645;BME280;36494;50.730;-1.932;2023-03-14T08:02:47;99752.53;;;4.15;100.00
49645;BME280;36494;50.730;-1.932;2023-03-14T08:05:12;99755.66;;;4.15;100.00
49645;BME280;36494;50.730;-1.932;2023-03-14T08:07:38;99760.25;;;4.14;100.00
49645;BME280;36494;50.730;-1.932;2023-03-14T08:10:04;99761.55;;;4.20;100.00
49645;BME280;36494;50.730;-1.932;2023-03-14T08:12:29;99769.74;;;4.20;100.00
49645;BME280;36494;50.730;-1.932;2023-03-14T08:14:54;99773.20;;;4.19;100.00
49645;BME280;36494;50.730;-1.932;2023-03-14T08:17:20;99771.24;;;4.25;100.00
49645;BME280;36494;50.730;-1.932;2023-03-14T08:19:45;99776.57;;;4.30;100.00
49645;BME280;36494;50.730;-1.932;2023-03-14T08:22:10;99782.15;;;4.33;100.00
49645;BME280;36494;50.730;-1.932;2023-03-14T08:24:36;99792.47;;;4.35;100.00
49645;BME280;36494;50.730;-1.932;2023-03-14T08:27:01;99799.72;;;4.36;100.00
49645;BME280;36494;50.730;-1.932;2023-03-14T08:29:26;99812.13;;;4.42;100.00
49645;BME280;36494;50.730;-1.932;2023-03-14T08:31:51;99815.50;;;4.46;100.00
49645;BME280;36494;50.730;-1.932;2023-03-14T08:34:17;99814.52;;;4.51;100.00
49645;BME280;36494;50.730;-1.932;2023-03-14T08:36:42;99822.17;;;4.55;100.00
49645;BME280;36494;50.730;-1.932;2023-03-14T08:39:08;99819.00;;;4.60;100.00
49645;BME280;36494;50.730;-1.932;2023-03-14T08:41:33;99829.32;;;4.62;100.00
49645;BME280;36494;50.730;-1.932;2023-03-14T08:43:58;99840.97;;;4.68;100.00
49645;BME280;36494;50.730;-1.932;2023-03-14T08:46:24;99844.49;;;4.71;100.00
49645;BME280;36494;50.730;-1.932;2023-03-14T08:48:49;99844.88;;;4.79;100.00
49645;BME280;36494;50.730;-1.932;2023-03-14T08:51:15;99854.01;;;4.85;100.00
49645;BME280;36494;50.730;-1.932;2023-03-14T08:53:40;99857.29;;;4.92;100.00
49645;BME280;36494;50.730;-1.932;2023-03-14T08:56:06;99870.51;;;4.98;100.00
49645;BME280;36494;50.730;-1.932;2023-03-14T08:58:30;99874.66;;;5.04;100.00
49645;BME280;36494;50.730;-1.932;2023-03-14T09:00:56;99878.90;;;5.11;100.00
49645;BME280;36494;50.730;-1.932;2023-03-14T09:03:21;99883.68;;;5.19;100.00
49645;BME280;36494;50.730;-1.932;2023-03-14T09:05:47;99890.35;;;5.28;100.00
49645;BME280;36494;50.730;-1.932;2023-03-14T09:08:12;99899.76;;;5.36;100.00
49645;BME280;36494;50.730;-1.932;2023-03-14T09:10:37;99903.99;;;5.38;100.00
49645;BME280;36494;50.730;-1.932;2023-03-14T09:13:02;99908.30;;;5.39;100.00
49645;BME280;36494;50.730;-1.932;2023-03-14T09:15:28;99927.58;;;5.47;100.00
49645;BME280;36494;50.730;-1.932;2023-03-14T09:17:54;99932.70;;;5.53;100.00
49645;BME280;36494;50.730;-1.932;2023-03-14T09:20:19;99935.91;;;5.58;100.00
49645;BME280;36494;50.730;-1.932;2023-03-14T09:22:44;99946.52;;;5.58;100.00
49645;BME280;36494;50.730;-1.932;2023-03-14T09:25:10;99953.98;;;5.57;100.00
49645;BME280;36494;50.730;-1.932;2023-03-14T09:27:35;99961.31;;;5.62;100.00
49645;BME280;36494;50.730;-1.932;2023-03-14T09:30:00;99974.10;;;5.66;100.00
49645;BME280;36494;50.730;-1.932;2023-03-14T09:32:26;99979.82;;;5.67;100.00
49645;BME280;36494;50.730;-1.932;2023-03-14T09:34:51;99985.38;;;5.65;100.00
49645;BME280;36494;50.730;-1.932;2023-03-14T09:37:17;99988.08;;;5.70;100.00
49645;BME280;36494;50.730;-1.932;2023-03-14T09:39:42;99991.36;;;5.81;100.00
49645;BME280;36494;50.730;-1.932;2023-03-14T09:42:13;99997.04;;;5.94;100.00
49645;BME280;36494;50.730;-1.932;2023-03-14T09:44:36;100007.41;;;5.88;100.00
49645;BME280;36494;50.730;-1.932;2023-03-14T09:47:02;100014.24;;;5.88;100.00
49645;BME280;36494;50.730;-1.932;2023-03-14T09:49:28;100020.82;;;5.96;100.00
49645;BME280;36494;50.730;-1.932;2023-03-14T09:51:53;100027.76;;;5.94;100.00
49645;BME280;36494;50.730;-1.932;2023-03-14T09:54:26;100032.84;;;6.08;100.00
49645;BME280;36494;50.730;-1.932;2023-03-14T09:56:40;100041.24;;;6.07;100.00
49645;BME280;36494;50.730;-1.932;2023-03-14T09:59:11;100053.12;;;6.19;100.00
49645;BME280;36494;50.730;-1.932;2023-03-14T10:01:32;100060.46;;;6.09;100.00
49645;BME280;36494;50.730;-1.932;2023-03-14T10:03:59;100063.21;;;6.17;100.00
49645;BME280;36494;50.730;-1.932;2023-03-14T10:06:26;100074.33;;;6.27;100.00
49645;BME280;36494;50.730;-1.932;2023-03-14T10:08:47;100076.83;;;6.20;100.00
49645;BME280;36494;50.730;-1.932;2023-03-14T10:11:15;100082.59;;;6.18;100.00
49645;BME280;36494;50.730;-1.932;2023-03-14T10:13:47;100090.24;;;6.24;100.00
49645;BME280;36494;50.730;-1.932;2023-03-14T10:16:05;100090.18;;;6.28;100.00
49645;BME280;36494;50.730;-1.932;2023-03-14T10:18:31;100100.46;;;6.27;100.00
49645;BME280;36494;50.730;-1.932;2023-03-14T10:21:02;100112.36;;;6.43;100.00
49645;BME280;36494;50.730;-1.932;2023-03-14T10:23:24;100113.38;;;6.53;100.00
49645;BME280;36494;50.730;-1.932;2023-03-14T10:28:22;100125.53;;;6.65;100.00
49645;BME280;36494;50.730;-1.932;2023-03-14T10:30:40;100135.34;;;6.57;100.00
49645;BME280;36494;50.730;-1.932;2023-03-14T10:33:08;100136.03;;;6.48;100.00
49645;BME280;36494;50.730;-1.932;2023-03-14T10:35:33;100139.96;;;6.64;100.00
49645;BME280;36494;50.730;-1.932;2023-03-14T10:37:56;100142.45;;;6.84;100.00
49645;BME280;36494;50.730;-1.932;2023-03-14T10:40:24;100146.01;;;7.16;100.00
49645;BME280;36494;50.730;-1.932;2023-03-14T10:42:44;100159.38;;;7.30;100.00
49645;BME280;36494;50.730;-1.932;2023-03-14T10:47:35;100170.54;;;7.06;100.00
49645;BME280;36494;50.730;-1.932;2023-03-14T10:52:28;100190.19;;;7.23;100.00
49645;BME280;36494;50.730;-1.932;2023-03-14T10:54:57;100196.13;;;7.35;100.00
49645;BME280;36494;50.730;-1.932;2023-03-14T10:57:19;100201.90;;;7.38;100.00
49645;BME280;36494;50.730;-1.932;2023-03-14T10:59:43;100206.90;;;7.51;100.00
49645;BME280;36494;50.730;-1.932;2023-03-14T11:02:18;100213.47;;;7.46;100.00
49645;BME280;36494;50.730;-1.932;2023-03-14T11:04:43;100221.23;;;7.44;100.00
49645;BME280;36494;50.730;-1.932;2023-03-14T11:07:04;100235.39;;;7.51;100.00
49645;BME280;36494;50.730;-1.932;2023-03-14T11:09:28;100243.19;;;7.45;100.00
49645;BME280;36494;50.730;-1.932;2023-03-14T11:11:49;100256.98;;;7.43;100.00
49645;BME280;36494;50.730;-1.932;2023-03-14T11:14:23;100253.88;;;7.58;100.00
49645;BME280;36494;50.730;-1.932;2023-03-14T11:16:49;100258.49;;;7.72;100.00
49645;BME280;36494;50.730;-1.932;2023-03-14T11:19:13;100267.91;;;7.63;100.00
49645;BME280;36494;50.730;-1.932;2023-03-14T11:21:36;100277.59;;;7.65;100.00
49645;BME280;36494;50.730;-1.932;2023-03-14T11:24:05;100296.24;;;7.56;100.00
49645;BME280;36494;50.730;-1.932;2023-03-14T11:26:28;100301.66;;;7.56;100.00
49645;BME280;36494;50.730;-1.932;2023-03-14T11:28:49;100304.38;;;7.94;100.00
49645;BME280;36494;50.730;-1.932;2023-03-14T11:31:16;100303.74;;;8.34;100.00
49645;BME280;36494;50.730;-1.932;2023-03-14T11:33:38;100314.66;;;8.75;100.00
49645;BME280;36494;50.730;-1.932;2023-03-14T11:36:06;100314.64;;;9.17;100.00
49645;BME280;36494;50.730;-1.932;2023-03-14T11:38:32;100314.56;;;9.37;100.00
49645;BME280;36494;50.730;-1.932;2023-03-14T11:40:54;100313.53;;;9.41;100.00
49645;BME280;36494;50.730;-1.932;2023-03-14T11:43:24;100319.70;;;9.31;100.00
49645;BME280;36494;50.730;-1.932;2023-03-14T11:45:45;100329.11;;;9.14;100.00
49645;BME280;36494;50.730;-1.932;2023-03-14T11:48:17;100333.81;;;9.15;100.00
49645;BME280;36494;50.730;-1.932;2023-03-14T11:50:35;100340.62;;;8.97;100.00
49645;BME280;36494;50.730;-1.932;2023-03-14T11:53:06;100348.91;;;9.09;100.00
49645;BME280;36494;50.730;-1.932;2023-03-14T11:55:28;100351.36;;;9.01;100.00
49645;BME280;36494;50.730;-1.932;2023-03-14T11:57:51;100359.51;;;9.05;100.00
49645;BME280;36494;50.730;-1.932;2023-03-14T12:00:19;100369.03;;;9.05;100.00
49645;BME280;36494;50.730;-1.932;2023-03-14T12:02:48;100372.24;;;8.92;100.00
49645;BME280;36494;50.730;-1.932;2023-03-14T12:07:38;100377.22;;;9.08;100.00
49645;BME280;36494;50.730;-1.932;2023-03-14T12:09:57;100373.26;;;8.98;100.00
49645;BME280;36494;50.730;-1.932;2023-03-14T12:12:25;100379.40;;;8.94;100.00
49645;BME280;36494;50.730;-1.932;2023-03-14T12:14:54;100383.63;;;9.18;100.00
49645;BME280;36494;50.730;-1.932;2023-03-14T12:17:20;100385.96;;;9.55;100.00
49645;BME280;36494;50.730;-1.932;2023-03-14T12:19:40;100380.78;;;9.48;100.00
49645;BME280;36494;50.730;-1.932;2023-03-14T12:22:18;100376.46;;;9.82;100.00
49645;BME280;36494;50.730;-1.932;2023-03-14T12:24:31;100384.12;;;9.72;100.00
49645;BME280;36494;50.730;-1.932;2023-03-14T12:26:56;100391.31;;;9.48;100.00
49645;BME280;36494;50.730;-1.932;2023-03-14T12:29:20;100390.45;;;9.70;100.00
49645;BME280;36494;50.730;-1.932;2023-03-14T12:31:47;100389.83;;;10.07;100.00
49645;BME280;36494;50.730;-1.932;2023-03-14T12:36:53;100386.30;;;10.40;100.00
49645;BME280;36494;50.730;-1.932;2023-03-14T12:39:19;100383.60;;;10.44;100.00
49645;BME280;36494;50.730;-1.932;2023-03-14T12:41:34;100376.34;;;10.62;100.00
49645;BME280;36494;50.730;-1.932;2023-03-14T12:43:52;100392.50;;;10.57;100.00
49645;BME280;36494;50.730;-1.932;2023-03-14T12:46:23;100395.87;;;10.56;100.00
49645;BME280;36494;50.730;-1.932;2023-03-14T12:48:45;100400.46;;;10.78;100.00